Plymouth Kingdom, Vermont
Current Conditions -  °F | °C
As of 7:35 AM on Monday 26 Jan 2015 (Local Time) from KRUT Reporting Station
Clear Clear  
Wind Chill: -2°   Ceiling: Unl
Heat Index: -2°   Visibility: 10mi
Dew Point: -8°   Wind: 3mph
Humidity: 78%   Direction: 110°ESE
Pressure: 30.09"   Gusts: NA
Location:  43.5113°N, 72.7233°W
Report Text: KRUT 261235Z 11003KT 10SM CLR M19/M22 A3009 RMK AO1
Loading
Personal Weather Stations






























Interactive Weather Map New forecast layout! Learn more

10-Day Weather Forecast

Advertisements
Track Severe Weather on mobile